createdAt,value
2022-10-14T15:49:16.053Z,100.00
2022-10-14T15:50:20.291Z,100.00
2022-10-14T15:51:29.653Z,100.00
2022-10-14T15:52:33.346Z,100.00
2022-10-14T15:53:37.454Z,100.00
2022-10-14T15:54:40.972Z,100.00
2022-10-14T15:55:44.545Z,100.00
2022-10-14T15:56:48.009Z,100.00
2022-10-14T15:57:51.928Z,100.00
2022-10-14T15:58:55.012Z,100.00
2022-10-14T15:59:58.404Z,100.00
2022-10-14T16:01:04.474Z,100.00
2022-10-14T16:02:08.259Z,100.00
2022-10-14T16:03:12.042Z,100.00
2022-10-14T16:04:15.374Z,100.00
2022-10-14T16:05:20.326Z,100.00
2022-10-14T16:06:26.548Z,100.00
2022-10-14T16:07:29.405Z,100.00
2022-10-14T16:08:34.825Z,100.00
2022-10-14T16:09:37.770Z,100.00
2022-10-14T16:10:41.405Z,100.00
2022-10-14T16:11:44.572Z,100.00
2022-10-14T16:12:47.761Z,100.00
2022-10-14T16:13:50.830Z,100.00
2022-10-14T16:14:54.009Z,100.00
2022-10-14T16:15:56.894Z,100.00
2022-10-14T16:17:03.056Z,100.00
2022-10-14T16:18:04.265Z,100.00
2022-10-14T16:19:07.259Z,100.00
2022-10-14T16:20:15.040Z,100.00
2022-10-14T16:21:19.749Z,100.00
2022-10-14T16:23:43.231Z,100.00
2022-10-14T16:24:46.603Z,100.00
2022-10-14T16:25:52.350Z,100.00
2022-10-14T16:27:09.034Z,100.00
2022-10-14T16:28:12.448Z,100.00
2022-10-14T16:29:15.506Z,100.00
2022-10-14T16:30:29.508Z,100.00
2022-10-14T16:31:32.534Z,100.00
2022-10-14T16:32:36.526Z,100.00
2022-10-14T16:33:43.151Z,100.00
2022-10-14T16:34:44.861Z,100.00
2022-10-14T16:37:12.389Z,100.00
2022-10-14T16:41:00.496Z,100.00
2022-10-14T16:43:37.801Z,100.00
2022-10-14T16:44:44.800Z,100.00
2022-10-14T16:45:57.211Z,100.00
2022-10-14T16:48:21.129Z,100.00
2022-10-14T16:49:24.459Z,100.00
2022-10-14T16:50:34.510Z,100.00
2022-10-14T16:53:11.072Z,100.00
2022-10-14T16:54:21.540Z,100.00
2022-10-14T16:55:27.080Z,100.00
2022-10-14T16:56:33.500Z,100.00
2022-10-14T16:57:37.619Z,100.00
2022-10-14T16:58:41.709Z,100.00
2022-10-14T16:59:45.314Z,100.00
2022-10-14T17:00:48.900Z,100.00
2022-10-14T17:01:53.125Z,100.00
2022-10-14T17:02:56.323Z,100.00
2022-10-14T17:05:24.255Z,100.00
2022-10-14T17:06:30.007Z,100.00
2022-10-14T17:07:43.143Z,100.00
2022-10-14T17:08:46.150Z,100.00
2022-10-14T17:09:52.554Z,100.00
2022-10-14T17:11:02.074Z,100.00
2022-10-14T17:12:21.748Z,100.00
2022-10-14T17:13:25.308Z,100.00
2022-10-14T17:14:40.202Z,100.00
2022-10-14T17:15:43.970Z,100.00
2022-10-14T17:16:49.265Z,100.00
2022-10-14T17:17:53.331Z,100.00
2022-10-14T17:23:12.324Z,100.00
2022-10-14T17:24:28.203Z,100.00
2022-10-14T17:25:38.843Z,100.00
2022-10-14T17:27:05.026Z,100.00
2022-10-14T17:28:18.103Z,100.00
2022-10-14T17:29:22.009Z,100.00
2022-10-14T17:30:25.877Z,100.00
2022-10-14T17:32:52.013Z,100.00
2022-10-14T17:33:55.796Z,100.00
2022-10-14T17:35:00.215Z,100.00
2022-10-14T17:36:03.507Z,100.00
2022-10-14T17:38:12.575Z,100.00
2022-10-14T17:40:36.302Z,100.00
2022-10-14T17:41:39.852Z,100.00
2022-10-14T17:42:44.958Z,100.00
2022-10-14T17:45:09.162Z,100.00
2022-10-14T17:46:18.345Z,100.00
2022-10-14T17:47:21.903Z,100.00
2022-10-14T17:48:25.867Z,100.00
2022-10-14T17:49:33.394Z,100.00
2022-10-14T17:50:52.490Z,100.00
2022-10-14T17:51:55.529Z,100.00
2022-10-14T17:52:59.223Z,100.00
2022-10-14T17:54:03.009Z,100.00
2022-10-14T17:55:06.028Z,100.00
2022-10-14T17:56:09.990Z,100.00
2022-10-14T17:57:13.792Z,100.00
2022-10-14T17:58:18.619Z,100.00
2022-10-14T17:59:23.841Z,100.00
2022-10-14T18:00:37.068Z,100.00
2022-10-14T18:02:01.724Z,100.00
2022-10-14T18:02:48.033Z,100.00
2022-10-14T18:03:56.960Z,100.00
2022-10-14T18:05:03.416Z,100.00
2022-10-14T18:06:21.682Z,100.00
2022-10-14T18:07:25.295Z,100.00
2022-10-14T18:08:29.864Z,100.00
2022-10-14T18:09:44.667Z,100.00
2022-10-14T18:10:55.303Z,100.00
2022-10-14T18:12:09.494Z,100.00
2022-10-14T18:13:28.758Z,100.00
2022-10-14T18:14:34.669Z,100.00
2022-10-14T18:15:38.690Z,100.00
2022-10-14T18:16:41.635Z,100.00
2022-10-14T18:17:45.375Z,100.00
2022-10-14T18:18:57.163Z,100.00
2022-10-14T18:20:05.309Z,100.00
2022-10-14T18:21:09.166Z,100.00
2022-10-14T18:22:13.758Z,100.00
2022-10-14T18:23:22.200Z,100.00
2022-10-14T18:24:32.225Z,100.00
2022-10-14T18:25:40.825Z,100.00
2022-10-14T18:26:51.992Z,100.00
2022-10-14T18:28:02.022Z,100.00
2022-10-14T18:29:13.446Z,100.00
2022-10-14T18:30:17.725Z,100.00
2022-10-14T18:31:25.409Z,100.00
2022-10-14T18:32:31.140Z,100.00
2022-10-14T18:33:38.768Z,100.00
2022-10-14T18:34:47.232Z,100.00
2022-10-14T18:35:51.300Z,100.00
2022-10-14T18:36:55.033Z,100.00
2022-10-14T18:37:59.134Z,100.00
2022-10-14T18:39:03.758Z,100.00
2022-10-14T18:41:27.851Z,100.00
2022-10-14T18:42:31.373Z,100.00
2022-10-14T18:43:35.404Z,100.00
2022-10-14T18:44:38.352Z,100.00
2022-10-14T18:45:47.840Z,100.00
2022-10-14T18:47:00.781Z,100.00
2022-10-14T18:48:12.484Z,100.00
2022-10-14T18:50:40.245Z,100.00
2022-10-14T18:51:47.587Z,100.00
2022-10-14T18:54:16.460Z,100.00
2022-10-14T18:55:29.849Z,100.00
2022-10-14T18:56:34.457Z,100.00
2022-10-14T18:57:53.879Z,100.00
2022-10-14T18:58:57.646Z,100.00
2022-10-14T19:00:01.564Z,100.00
2022-10-14T19:01:06.135Z,100.00
2022-10-14T19:02:10.485Z,100.00
2022-10-14T19:03:16.113Z,100.00
2022-10-14T19:04:19.328Z,100.00
2022-10-14T19:05:23.403Z,100.00
2022-10-14T19:06:26.993Z,100.00
2022-10-14T19:07:32.419Z,100.00
2022-10-14T19:08:39.414Z,100.00
2022-10-14T19:09:44.005Z,100.00
2022-10-14T19:10:49.146Z,100.00
2022-10-14T19:11:52.840Z,100.00
2022-10-14T19:12:56.748Z,100.00
2022-10-14T19:15:20.614Z,100.00
2022-10-14T19:16:25.115Z,100.00
2022-10-14T19:17:30.553Z,100.00
2022-10-14T19:18:34.041Z,100.00
2022-10-14T19:19:37.854Z,100.00
2022-10-14T19:20:41.452Z,100.00
2022-10-14T19:21:45.221Z,100.00
2022-10-14T19:22:56.719Z,100.00
2022-10-14T19:25:20.989Z,100.00
2022-10-14T19:26:33.373Z,100.00
2022-10-14T19:27:37.045Z,100.00
2022-10-14T19:31:28.951Z,100.00
2022-10-14T19:32:32.820Z,100.00
2022-10-14T19:33:50.412Z,100.00
2022-10-14T19:34:54.238Z,100.00
2022-10-14T19:36:05.630Z,100.00
2022-10-14T19:38:29.234Z,100.00
2022-10-14T19:39:34.440Z,100.00
2022-10-14T19:40:39.848Z,100.00
2022-10-14T19:41:43.844Z,100.00
2022-10-14T19:42:52.994Z,100.00
2022-10-14T19:44:08.306Z,100.00
2022-10-14T19:46:33.633Z,100.00
2022-10-14T19:49:10.183Z,100.00
2022-10-14T19:52:59.485Z,100.00
2022-10-14T19:58:08.947Z,100.00
2022-10-14T19:59:12.848Z,100.00
2022-10-14T20:02:59.580Z,100.00
2022-10-14T20:09:29.923Z,100.00
2022-10-14T20:10:34.427Z,100.00
2022-10-14T20:11:53.315Z,100.00
2022-10-14T20:13:10.386Z,100.00
2022-10-14T20:15:34.875Z,100.00
2022-10-14T20:18:14.417Z,100.00
2022-10-14T20:24:19.498Z,100.00
2022-10-14T20:27:01.360Z,100.00
2022-10-14T20:28:13.168Z,100.00
2022-10-14T20:29:17.367Z,100.00
2022-10-14T20:30:20.545Z,100.00
2022-10-14T20:31:36.281Z,100.00
2022-10-14T20:32:41.757Z,100.00
2022-10-14T20:33:51.298Z,100.00
2022-10-14T20:34:58.253Z,100.00
2022-10-14T20:36:12.258Z,100.00
2022-10-14T20:38:43.970Z,100.00
2022-10-14T20:39:55.120Z,100.00
2022-10-14T20:41:10.081Z,100.00
2022-10-14T20:42:20.789Z,100.00
2022-10-14T20:43:24.335Z,100.00
2022-10-14T20:45:45.819Z,100.00
2022-10-14T20:46:58.496Z,100.00
2022-10-14T20:48:07.177Z,100.00
2022-10-14T20:49:10.975Z,100.00
2022-10-14T20:50:16.600Z,100.00
2022-10-14T20:51:23.339Z,100.00
2022-10-14T20:52:27.065Z,100.00
2022-10-14T20:54:58.177Z,100.00
2022-10-14T20:56:01.789Z,100.00
2022-10-14T20:57:05.588Z,100.00
2022-10-14T20:58:09.476Z,100.00
2022-10-14T20:59:13.790Z,100.00
2022-10-14T21:00:19.229Z,100.00
2022-10-14T21:01:22.965Z,100.00
2022-10-14T21:02:26.816Z,100.00
2022-10-14T21:03:34.405Z,100.00
2022-10-14T21:04:38.312Z,100.00
2022-10-14T21:05:41.485Z,100.00
2022-10-14T21:06:47.941Z,100.00
2022-10-14T21:07:51.949Z,100.00
2022-10-14T21:08:55.869Z,100.00
2022-10-14T21:10:20.025Z,100.00
2022-10-14T21:12:48.698Z,100.00
2022-10-14T21:13:52.397Z,100.00
2022-10-14T21:14:55.985Z,100.00
2022-10-14T21:15:59.491Z,100.00
2022-10-14T21:17:06.535Z,100.00
2022-10-14T21:18:14.051Z,100.00
2022-10-14T21:19:17.828Z,100.00
2022-10-14T21:20:21.217Z,100.00
2022-10-14T21:21:24.619Z,100.00
2022-10-14T21:22:28.100Z,100.00
2022-10-14T21:23:31.590Z,100.00
2022-10-14T21:24:35.115Z,100.00
2022-10-14T21:25:40.916Z,100.00
2022-10-14T21:26:44.517Z,100.00
2022-10-14T21:27:47.896Z,100.00
2022-10-14T21:28:51.755Z,100.00
2022-10-14T21:31:04.845Z,100.00
2022-10-14T21:32:10.765Z,100.00
2022-10-14T21:33:19.339Z,100.00
2022-10-14T21:34:22.752Z,100.00
2022-10-14T21:35:26.642Z,100.00
2022-10-14T21:36:30.131Z,100.00
2022-10-14T21:37:33.936Z,100.00
2022-10-14T21:38:39.888Z,100.00
2022-10-14T21:39:43.569Z,100.00
2022-10-14T21:40:51.141Z,100.00
2022-10-14T21:41:54.028Z,100.00
2022-10-14T21:42:57.420Z,100.00
2022-10-14T21:44:01.128Z,100.00
2022-10-14T21:45:04.405Z,100.00
2022-10-14T21:46:07.813Z,100.00
2022-10-14T21:47:11.367Z,100.00
2022-10-14T21:48:15.684Z,100.00
2022-10-14T21:49:19.691Z,100.00
2022-10-14T21:50:23.484Z,100.00
2022-10-14T21:51:34.155Z,100.00
2022-10-14T21:52:44.581Z,100.00
2022-10-14T21:53:47.455Z,100.00
2022-10-14T21:54:52.295Z,100.00
2022-10-14T21:55:55.469Z,100.00
2022-10-14T21:56:58.973Z,100.00
2022-10-14T21:58:02.188Z,100.00
2022-10-14T21:59:05.327Z,100.00
2022-10-14T22:00:08.803Z,100.00
2022-10-14T22:01:17.059Z,100.00
2022-10-14T22:02:20.294Z,100.00
2022-10-14T22:03:23.706Z,100.00
2022-10-14T22:04:28.034Z,100.00
2022-10-14T22:05:31.369Z,100.00
2022-10-14T22:06:34.660Z,100.00
2022-10-14T22:07:52.420Z,100.00
2022-10-14T22:08:56.590Z,100.00
2022-10-14T22:10:01.103Z,100.00
2022-10-14T22:11:04.381Z,100.00
2022-10-14T22:12:08.183Z,100.00
2022-10-14T22:13:11.270Z,100.00
2022-10-14T22:14:14.789Z,100.00
2022-10-14T22:15:18.043Z,100.00
2022-10-14T22:16:21.896Z,100.00
2022-10-14T22:17:25.814Z,100.00
2022-10-14T22:18:30.253Z,100.00
2022-10-14T22:19:38.802Z,100.00
2022-10-14T22:20:52.678Z,100.00
2022-10-14T22:21:55.977Z,100.00
2022-10-14T22:23:09.933Z,100.00
2022-10-14T22:25:43.818Z,100.00
2022-10-14T22:26:47.191Z,100.00
2022-10-14T22:27:50.691Z,100.00
2022-10-14T22:28:54.558Z,100.00
2022-10-14T22:30:00.233Z,100.00
2022-10-14T22:31:03.401Z,100.00
2022-10-14T22:32:06.890Z,100.00
2022-10-14T22:33:10.708Z,100.00
2022-10-14T22:34:14.292Z,100.00
2022-10-14T22:35:17.867Z,100.00
2022-10-14T22:36:24.193Z,100.00
2022-10-14T22:37:27.837Z,100.00
2022-10-14T22:38:30.906Z,100.00
2022-10-14T22:39:34.508Z,100.00
2022-10-14T22:40:51.253Z,100.00
2022-10-14T22:41:55.613Z,100.00
2022-10-14T22:42:59.505Z,100.00
2022-10-14T22:44:02.888Z,100.00
2022-10-14T22:45:06.784Z,100.00
2022-10-14T22:46:10.913Z,100.00
2022-10-14T22:47:14.496Z,100.00
2022-10-14T22:48:17.867Z,100.00
2022-10-14T22:49:27.779Z,100.00
2022-10-14T22:50:34.994Z,100.00
2022-10-14T22:51:41.591Z,100.00
2022-10-14T22:52:45.550Z,100.00
2022-10-14T22:53:50.273Z,100.00
2022-10-14T22:54:56.191Z,100.00
2022-10-14T22:56:01.033Z,100.00
2022-10-14T22:57:04.432Z,100.00
2022-10-14T22:58:12.935Z,100.00
2022-10-14T22:59:16.427Z,100.00
2022-10-14T23:00:22.979Z,100.00
2022-10-14T23:01:26.474Z,100.00
2022-10-14T23:02:30.979Z,96.84
2022-10-14T23:03:34.898Z,100.00
2022-10-14T23:04:38.373Z,100.00
2022-10-14T23:05:42.463Z,100.00
2022-10-14T23:06:46.563Z,98.61
2022-10-14T23:07:50.064Z,100.00
2022-10-14T23:09:05.256Z,100.00
2022-10-14T23:10:09.014Z,99.36
2022-10-14T23:11:12.610Z,97.29
2022-10-14T23:12:22.100Z,93.53
2022-10-14T23:13:25.633Z,93.98
2022-10-14T23:14:29.025Z,97.49
2022-10-14T23:15:32.214Z,100.00
2022-10-14T23:16:37.551Z,100.00
2022-10-14T23:17:40.821Z,94.12
2022-10-14T23:18:44.512Z,94.39
2022-10-14T23:19:48.206Z,95.32
2022-10-14T23:20:54.543Z,98.70
2022-10-14T23:21:58.043Z,100.00
2022-10-14T23:23:01.125Z,98.56
2022-10-14T23:24:05.332Z,100.00
2022-10-14T23:25:09.029Z,100.00
2022-10-14T23:26:14.302Z,100.00
2022-10-14T23:27:19.069Z,100.00
2022-10-14T23:28:22.908Z,99.87
2022-10-14T23:29:26.012Z,98.87
2022-10-14T23:30:29.450Z,100.00
2022-10-14T23:31:33.037Z,100.00
2022-10-14T23:32:36.421Z,99.52
2022-10-14T23:33:40.124Z,100.00
2022-10-14T23:34:43.812Z,100.00
2022-10-14T23:35:53.832Z,100.00
2022-10-14T23:36:57.447Z,95.86
2022-10-14T23:38:01.438Z,98.47
2022-10-14T23:39:18.461Z,100.00
2022-10-14T23:40:22.147Z,100.00
2022-10-14T23:41:25.428Z,97.21
2022-10-14T23:42:29.129Z,94.33
2022-10-14T23:43:33.836Z,91.78
2022-10-14T23:44:41.528Z,94.40
2022-10-14T23:46:56.094Z,98.99
2022-10-14T23:47:59.569Z,100.00
2022-10-14T23:49:07.956Z,100.00
2022-10-14T23:50:07.359Z,100.00
2022-10-14T23:51:14.912Z,100.00
2022-10-14T23:52:21.128Z,100.00
2022-10-14T23:53:25.104Z,100.00
2022-10-14T23:54:28.803Z,100.00
2022-10-14T23:55:40.990Z,99.51
2022-10-14T23:56:43.980Z,100.00
2022-10-14T23:57:47.876Z,100.00
2022-10-14T23:58:51.970Z,98.00
2022-10-14T23:59:55.660Z,97.81
